Terminal Aerodrome Forecast
Issued by NWS

Home | Current Version | Previous Version | Text Only | Print | Product List | Glossary On
Versions: 1 2 3 4 5 6 7 8 9 10 11 12
995
FTUS44 KBMX 272326
TAFTCL
TAF
KTCL 272326Z 2800/2824 18007KT P6SM BKN250
     FM281400 18008KT P6SM BKN045 BKN100=

USA.gov is the U.S. government's official web portal to all federal, state and local government web resources and services.